sensor_id;sensor_type;location;lat;lon;timestamp;P1;durP1;ratioP1;P2;durP2;ratioP2
27839;SDS011;15207;42.182;24.308;2023-04-03T00:00:50;5.05;;;2.05;;
27839;SDS011;15207;42.182;24.308;2023-04-03T00:03:16;2.65;;;1.60;;
27839;SDS011;15207;42.182;24.308;2023-04-03T00:05:43;3.25;;;1.80;;
27839;SDS011;15207;42.182;24.308;2023-04-03T00:08:09;2.90;;;1.70;;
27839;SDS011;15207;42.182;24.308;2023-04-03T00:10:36;2.67;;;1.50;;
27839;SDS011;15207;42.182;24.308;2023-04-03T00:13:02;2.87;;;1.60;;
27839;SDS011;15207;42.182;24.308;2023-04-03T00:15:28;5.80;;;1.75;;
27839;SDS011;15207;42.182;24.308;2023-04-03T00:17:54;1.90;;;1.25;;
27839;SDS011;15207;42.182;24.308;2023-04-03T00:20:19;3.00;;;1.70;;
27839;SDS011;15207;42.182;24.308;2023-04-03T00:22:45;3.95;;;1.65;;
27839;SDS011;15207;42.182;24.308;2023-04-03T00:25:11;2.80;;;1.70;;
27839;SDS011;15207;42.182;24.308;2023-04-03T00:27:37;4.50;;;1.60;;
27839;SDS011;15207;42.182;24.308;2023-04-03T00:30:05;3.07;;;1.93;;
27839;SDS011;15207;42.182;24.308;2023-04-03T00:32:32;3.35;;;1.55;;
27839;SDS011;15207;42.182;24.308;2023-04-03T00:34:57;3.00;;;1.95;;
27839;SDS011;15207;42.182;24.308;2023-04-03T00:37:23;4.35;;;2.40;;
27839;SDS011;15207;42.182;24.308;2023-04-03T00:39:48;4.18;;;2.50;;
27839;SDS011;15207;42.182;24.308;2023-04-03T00:47:05;5.05;;;2.35;;
27839;SDS011;15207;42.182;24.308;2023-04-03T00:49:33;3.83;;;2.03;;
27839;SDS011;15207;42.182;24.308;2023-04-03T00:52:00;2.90;;;2.05;;
27839;SDS011;15207;42.182;24.308;2023-04-03T00:54:26;3.47;;;2.22;;
27839;SDS011;15207;42.182;24.308;2023-04-03T00:56:52;4.43;;;2.23;;
27839;SDS011;15207;42.182;24.308;2023-04-03T00:59:22;7.35;;;3.05;;
27839;SDS011;15207;42.182;24.308;2023-04-03T01:01:52;4.05;;;2.85;;
27839;SDS011;15207;42.182;24.308;2023-04-03T01:04:35;3.97;;;2.30;;
27839;SDS011;15207;42.182;24.308;2023-04-03T01:07:05;4.40;;;2.20;;
27839;SDS011;15207;42.182;24.308;2023-04-03T01:15:09;5.10;;;2.50;;
27839;SDS011;15207;42.182;24.308;2023-04-03T01:17:41;3.65;;;2.25;;
27839;SDS011;15207;42.182;24.308;2023-04-03T01:25:39;6.50;;;2.50;;
27839;SDS011;15207;42.182;24.308;2023-04-03T01:33:43;4.60;;;2.20;;
27839;SDS011;15207;42.182;24.308;2023-04-03T01:36:10;3.60;;;2.00;;
27839;SDS011;15207;42.182;24.308;2023-04-03T01:38:40;5.40;;;2.30;;
27839;SDS011;15207;42.182;24.308;2023-04-03T01:41:06;3.40;;;2.10;;
27839;SDS011;15207;42.182;24.308;2023-04-03T01:43:31;2.60;;;2.00;;
27839;SDS011;15207;42.182;24.308;2023-04-03T01:45:57;3.80;;;2.00;;
27839;SDS011;15207;42.182;24.308;2023-04-03T01:48:23;3.13;;;2.33;;
27839;SDS011;15207;42.182;24.308;2023-04-03T01:50:48;2.60;;;1.70;;
27839;SDS011;15207;42.182;24.308;2023-04-03T01:53:15;3.30;;;1.90;;
27839;SDS011;15207;42.182;24.308;2023-04-03T01:55:40;3.65;;;2.00;;
27839;SDS011;15207;42.182;24.308;2023-04-03T01:58:06;2.40;;;1.90;;
27839;SDS011;15207;42.182;24.308;2023-04-03T02:00:31;2.80;;;1.70;;
27839;SDS011;15207;42.182;24.308;2023-04-03T02:02:57;6.60;;;3.20;;
27839;SDS011;15207;42.182;24.308;2023-04-03T02:05:22;5.60;;;2.60;;
27839;SDS011;15207;42.182;24.308;2023-04-03T02:07:48;4.15;;;2.47;;
27839;SDS011;15207;42.182;24.308;2023-04-03T02:10:13;6.80;;;3.25;;
27839;SDS011;15207;42.182;24.308;2023-04-03T02:12:39;13.35;;;4.35;;
27839;SDS011;15207;42.182;24.308;2023-04-03T02:15:05;11.80;;;4.20;;
27839;SDS011;15207;42.182;24.308;2023-04-03T02:17:31;9.00;;;3.40;;
27839;SDS011;15207;42.182;24.308;2023-04-03T02:19:56;6.00;;;3.50;;
27839;SDS011;15207;42.182;24.308;2023-04-03T02:22:22;11.70;;;3.95;;
27839;SDS011;15207;42.182;24.308;2023-04-03T02:24:47;10.30;;;3.00;;
27839;SDS011;15207;42.182;24.308;2023-04-03T02:27:13;5.95;;;3.00;;
27839;SDS011;15207;42.182;24.308;2023-04-03T02:29:39;10.40;;;4.10;;
27839;SDS011;15207;42.182;24.308;2023-04-03T02:32:05;9.00;;;3.30;;
27839;SDS011;15207;42.182;24.308;2023-04-03T02:34:30;8.40;;;3.40;;
27839;SDS011;15207;42.182;24.308;2023-04-03T02:36:56;26.10;;;7.60;;
27839;SDS011;15207;42.182;24.308;2023-04-03T02:39:21;35.85;;;9.07;;
27839;SDS011;15207;42.182;24.308;2023-04-03T02:41:47;35.35;;;9.00;;
27839;SDS011;15207;42.182;24.308;2023-04-03T02:44:12;19.80;;;6.10;;
27839;SDS011;15207;42.182;24.308;2023-04-03T02:46:38;18.00;;;5.70;;
27839;SDS011;15207;42.182;24.308;2023-04-03T02:49:04;4.90;;;3.07;;
27839;SDS011;15207;42.182;24.308;2023-04-03T02:51:29;3.25;;;1.85;;
27839;SDS011;15207;42.182;24.308;2023-04-03T02:53:55;2.50;;;1.80;;
27839;SDS011;15207;42.182;24.308;2023-04-03T02:56:21;1.85;;;1.65;;
27839;SDS011;15207;42.182;24.308;2023-04-03T02:58:46;5.50;;;2.00;;
27839;SDS011;15207;42.182;24.308;2023-04-03T03:01:12;2.90;;;1.80;;
27839;SDS011;15207;42.182;24.308;2023-04-03T03:03:38;6.75;;;2.42;;
27839;SDS011;15207;42.182;24.308;2023-04-03T03:06:05;7.00;;;2.30;;
27839;SDS011;15207;42.182;24.308;2023-04-03T03:08:38;10.00;;;2.30;;
27839;SDS011;15207;42.182;24.308;2023-04-03T03:11:04;4.60;;;2.60;;
27839;SDS011;15207;42.182;24.308;2023-04-03T03:15:56;3.85;;;2.40;;
27839;SDS011;15207;42.182;24.308;2023-04-03T03:18:22;2.90;;;1.95;;
27839;SDS011;15207;42.182;24.308;2023-04-03T03:20:52;4.45;;;2.60;;
27839;SDS011;15207;42.182;24.308;2023-04-03T03:23:18;5.70;;;2.60;;
27839;SDS011;15207;42.182;24.308;2023-04-03T03:25:44;3.60;;;2.55;;
27839;SDS011;15207;42.182;24.308;2023-04-03T03:28:09;5.00;;;2.40;;
27839;SDS011;15207;42.182;24.308;2023-04-03T03:30:36;3.45;;;2.50;;
27839;SDS011;15207;42.182;24.308;2023-04-03T03:33:02;3.17;;;2.17;;
27839;SDS011;15207;42.182;24.308;2023-04-03T03:35:28;5.05;;;2.60;;
27839;SDS011;15207;42.182;24.308;2023-04-03T03:37:53;5.90;;;3.05;;
27839;SDS011;15207;42.182;24.308;2023-04-03T03:40:19;10.30;;;4.00;;
27839;SDS011;15207;42.182;24.308;2023-04-03T03:42:45;8.40;;;3.90;;
27839;SDS011;15207;42.182;24.308;2023-04-03T03:45:10;7.35;;;3.90;;
27839;SDS011;15207;42.182;24.308;2023-04-03T03:47:36;7.35;;;4.05;;
27839;SDS011;15207;42.182;24.308;2023-04-03T03:50:02;6.72;;;3.45;;
27839;SDS011;15207;42.182;24.308;2023-04-03T03:52:28;8.60;;;3.90;;
27839;SDS011;15207;42.182;24.308;2023-04-03T03:54:55;6.70;;;3.00;;
27839;SDS011;15207;42.182;24.308;2023-04-03T03:57:20;5.70;;;3.15;;
27839;SDS011;15207;42.182;24.308;2023-04-03T03:59:46;8.00;;;3.60;;
27839;SDS011;15207;42.182;24.308;2023-04-03T04:02:13;6.33;;;3.10;;
27839;SDS011;15207;42.182;24.308;2023-04-03T04:04:39;5.75;;;3.38;;
27839;SDS011;15207;42.182;24.308;2023-04-03T04:07:05;10.13;;;3.33;;
27839;SDS011;15207;42.182;24.308;2023-04-03T04:09:31;5.25;;;3.10;;
27839;SDS011;15207;42.182;24.308;2023-04-03T04:11:56;5.60;;;3.45;;
27839;SDS011;15207;42.182;24.308;2023-04-03T04:14:21;5.50;;;3.25;;
27839;SDS011;15207;42.182;24.308;2023-04-03T04:16:47;4.90;;;2.80;;
27839;SDS011;15207;42.182;24.308;2023-04-03T04:19:13;5.97;;;2.90;;
27839;SDS011;15207;42.182;24.308;2023-04-03T04:21:39;5.32;;;2.78;;
27839;SDS011;15207;42.182;24.308;2023-04-03T04:24:07;4.40;;;2.80;;
27839;SDS011;15207;42.182;24.308;2023-04-03T04:26:33;6.40;;;3.50;;
27839;SDS011;15207;42.182;24.308;2023-04-03T04:28:59;3.75;;;2.30;;
27839;SDS011;15207;42.182;24.308;2023-04-03T04:31:25;4.75;;;2.90;;
27839;SDS011;15207;42.182;24.308;2023-04-03T04:33:51;7.20;;;2.87;;
27839;SDS011;15207;42.182;24.308;2023-04-03T04:36:17;4.70;;;3.00;;
27839;SDS011;15207;42.182;24.308;2023-04-03T04:38:43;5.90;;;3.30;;
27839;SDS011;15207;42.182;24.308;2023-04-03T04:41:08;6.70;;;3.10;;
27839;SDS011;15207;42.182;24.308;2023-04-03T04:43:34;7.10;;;3.60;;
27839;SDS011;15207;42.182;24.308;2023-04-03T04:46:06;6.60;;;3.10;;
27839;SDS011;15207;42.182;24.308;2023-04-03T04:48:33;4.30;;;2.90;;
27839;SDS011;15207;42.182;24.308;2023-04-03T04:51:00;6.80;;;2.90;;
27839;SDS011;15207;42.182;24.308;2023-04-03T04:53:26;8.98;;;3.25;;
27839;SDS011;15207;42.182;24.308;2023-04-03T04:55:52;7.85;;;2.90;;
27839;SDS011;15207;42.182;24.308;2023-04-03T04:58:17;4.90;;;3.20;;
27839;SDS011;15207;42.182;24.308;2023-04-03T05:00:43;9.00;;;3.40;;
27839;SDS011;15207;42.182;24.308;2023-04-03T05:03:09;6.90;;;3.40;;
27839;SDS011;15207;42.182;24.308;2023-04-03T05:05:35;14.35;;;3.85;;
27839;SDS011;15207;42.182;24.308;2023-04-03T05:08:01;9.70;;;3.20;;
27839;SDS011;15207;42.182;24.308;2023-04-03T05:12:53;7.77;;;2.77;;
27839;SDS011;15207;42.182;24.308;2023-04-03T05:15:18;7.30;;;2.80;;
27839;SDS011;15207;42.182;24.308;2023-04-03T05:17:44;4.25;;;2.65;;
27839;SDS011;15207;42.182;24.308;2023-04-03T05:20:10;4.72;;;2.78;;
27839;SDS011;15207;42.182;24.308;2023-04-03T05:22:36;6.07;;;2.92;;
27839;SDS011;15207;42.182;24.308;2023-04-03T05:25:02;6.00;;;3.00;;
27839;SDS011;15207;42.182;24.308;2023-04-03T05:27:28;12.80;;;3.80;;
27839;SDS011;15207;42.182;24.308;2023-04-03T05:29:54;9.17;;;4.30;;
27839;SDS011;15207;42.182;24.308;2023-04-03T05:32:20;9.15;;;4.75;;
27839;SDS011;15207;42.182;24.308;2023-04-03T05:34:46;11.10;;;5.30;;
27839;SDS011;15207;42.182;24.308;2023-04-03T05:37:12;12.80;;;5.90;;
27839;SDS011;15207;42.182;24.308;2023-04-03T05:39:37;10.15;;;4.70;;
27839;SDS011;15207;42.182;24.308;2023-04-03T05:42:05;5.82;;;3.50;;
27839;SDS011;15207;42.182;24.308;2023-04-03T05:44:31;7.80;;;2.80;;
27839;SDS011;15207;42.182;24.308;2023-04-03T05:46:57;11.05;;;4.35;;
27839;SDS011;15207;42.182;24.308;2023-04-03T05:49:22;8.75;;;3.95;;
27839;SDS011;15207;42.182;24.308;2023-04-03T05:51:48;7.18;;;3.67;;
27839;SDS011;15207;42.182;24.308;2023-04-03T05:54:24;7.80;;;3.30;;
27839;SDS011;15207;42.182;24.308;2023-04-03T05:56:52;4.97;;;3.53;;
27839;SDS011;15207;42.182;24.308;2023-04-03T05:59:18;7.40;;;3.90;;
27839;SDS011;15207;42.182;24.308;2023-04-03T06:01:45;10.10;;;3.25;;
27839;SDS011;15207;42.182;24.308;2023-04-03T06:04:11;4.75;;;3.30;;
27839;SDS011;15207;42.182;24.308;2023-04-03T06:09:12;4.22;;;2.83;;
27839;SDS011;15207;42.182;24.308;2023-04-03T06:11:39;5.00;;;3.20;;
27839;SDS011;15207;42.182;24.308;2023-04-03T06:14:05;8.00;;;3.60;;
27839;SDS011;15207;42.182;24.308;2023-04-03T06:16:31;5.60;;;3.00;;
27839;SDS011;15207;42.182;24.308;2023-04-03T06:18:57;4.80;;;3.80;;
27839;SDS011;15207;42.182;24.308;2023-04-03T06:21:22;5.73;;;3.37;;
27839;SDS011;15207;42.182;24.308;2023-04-03T06:23:48;5.50;;;3.30;;
27839;SDS011;15207;42.182;24.308;2023-04-03T06:26:14;7.13;;;3.92;;
27839;SDS011;15207;42.182;24.308;2023-04-03T06:28:39;5.80;;;3.70;;
27839;SDS011;15207;42.182;24.308;2023-04-03T06:31:05;5.10;;;3.50;;
27839;SDS011;15207;42.182;24.308;2023-04-03T06:33:32;6.53;;;3.67;;
27839;SDS011;15207;42.182;24.308;2023-04-03T06:35:58;7.97;;;4.35;;
27839;SDS011;15207;42.182;24.308;2023-04-03T06:38:24;8.70;;;4.35;;
27839;SDS011;15207;42.182;24.308;2023-04-03T06:40:50;6.30;;;3.80;;
27839;SDS011;15207;42.182;24.308;2023-04-03T06:45:42;6.95;;;3.80;;
27839;SDS011;15207;42.182;24.308;2023-04-03T06:48:07;8.10;;;3.65;;
27839;SDS011;15207;42.182;24.308;2023-04-03T06:50:33;6.25;;;3.90;;
27839;SDS011;15207;42.182;24.308;2023-04-03T06:52:58;7.00;;;3.30;;
27839;SDS011;15207;42.182;24.308;2023-04-03T06:55:25;4.80;;;3.22;;
27839;SDS011;15207;42.182;24.308;2023-04-03T06:57:51;7.25;;;3.70;;
27839;SDS011;15207;42.182;24.308;2023-04-03T07:00:17;7.10;;;3.90;;
27839;SDS011;15207;42.182;24.308;2023-04-03T07:02:44;7.15;;;4.00;;
27839;SDS011;15207;42.182;24.308;2023-04-03T07:05:10;8.90;;;4.00;;
27839;SDS011;15207;42.182;24.308;2023-04-03T07:07:37;9.20;;;4.35;;
27839;SDS011;15207;42.182;24.308;2023-04-03T07:10:03;10.73;;;4.47;;
27839;SDS011;15207;42.182;24.308;2023-04-03T07:12:29;12.45;;;4.50;;
27839;SDS011;15207;42.182;24.308;2023-04-03T07:14:54;7.50;;;4.40;;
27839;SDS011;15207;42.182;24.308;2023-04-03T07:17:20;9.70;;;4.55;;
27839;SDS011;15207;42.182;24.308;2023-04-03T07:19:46;7.40;;;4.20;;
27839;SDS011;15207;42.182;24.308;2023-04-03T07:22:11;7.40;;;3.30;;
27839;SDS011;15207;42.182;24.308;2023-04-03T07:24:38;5.63;;;3.80;;
27839;SDS011;15207;42.182;24.308;2023-04-03T07:27:04;7.45;;;3.65;;
27839;SDS011;15207;42.182;24.308;2023-04-03T07:29:30;6.30;;;3.80;;
27839;SDS011;15207;42.182;24.308;2023-04-03T07:31:56;5.23;;;3.63;;
27839;SDS011;15207;42.182;24.308;2023-04-03T07:34:22;5.20;;;2.80;;
27839;SDS011;15207;42.182;24.308;2023-04-03T07:36:47;7.00;;;3.90;;
27839;SDS011;15207;42.182;24.308;2023-04-03T07:39:13;6.90;;;3.90;;
27839;SDS011;15207;42.182;24.308;2023-04-03T07:41:38;5.40;;;3.20;;
27839;SDS011;15207;42.182;24.308;2023-04-03T07:44:04;7.83;;;3.50;;
27839;SDS011;15207;42.182;24.308;2023-04-03T07:46:30;6.90;;;3.10;;
27839;SDS011;15207;42.182;24.308;2023-04-03T07:48:56;10.10;;;3.05;;
27839;SDS011;15207;42.182;24.308;2023-04-03T07:51:22;4.40;;;2.80;;
27839;SDS011;15207;42.182;24.308;2023-04-03T07:53:49;4.85;;;2.75;;
27839;SDS011;15207;42.182;24.308;2023-04-03T07:56:16;5.30;;;2.80;;
27839;SDS011;15207;42.182;24.308;2023-04-03T07:58:42;7.20;;;3.80;;
27839;SDS011;15207;42.182;24.308;2023-04-03T08:01:07;4.45;;;2.75;;
27839;SDS011;15207;42.182;24.308;2023-04-03T08:03:33;5.00;;;2.80;;
27839;SDS011;15207;42.182;24.308;2023-04-03T08:06:05;4.20;;;2.90;;
27839;SDS011;15207;42.182;24.308;2023-04-03T08:08:32;5.65;;;2.75;;
27839;SDS011;15207;42.182;24.308;2023-04-03T08:10:59;5.10;;;3.45;;
27839;SDS011;15207;42.182;24.308;2023-04-03T08:13:27;8.67;;;3.20;;
27839;SDS011;15207;42.182;24.308;2023-04-03T08:15:53;5.20;;;3.05;;
27839;SDS011;15207;42.182;24.308;2023-04-03T08:18:18;4.50;;;2.60;;
27839;SDS011;15207;42.182;24.308;2023-04-03T08:20:46;6.60;;;3.50;;
27839;SDS011;15207;42.182;24.308;2023-04-03T08:23:12;5.68;;;3.20;;
27839;SDS011;15207;42.182;24.308;2023-04-03T08:25:39;6.30;;;3.60;;
27839;SDS011;15207;42.182;24.308;2023-04-03T08:28:06;6.90;;;3.55;;
27839;SDS011;15207;42.182;24.308;2023-04-03T08:30:32;9.23;;;4.05;;
27839;SDS011;15207;42.182;24.308;2023-04-03T08:33:00;5.95;;;3.50;;
27839;SDS011;15207;42.182;24.308;2023-04-03T08:35:27;6.25;;;3.75;;
27839;SDS011;15207;42.182;24.308;2023-04-03T08:37:52;9.23;;;4.15;;
27839;SDS011;15207;42.182;24.308;2023-04-03T08:40:18;6.25;;;3.40;;
27839;SDS011;15207;42.182;24.308;2023-04-03T08:45:25;6.30;;;3.40;;
27839;SDS011;15207;42.182;24.308;2023-04-03T08:48:06;5.85;;;3.15;;
27839;SDS011;15207;42.182;24.308;2023-04-03T08:50:41;7.20;;;3.60;;
27839;SDS011;15207;42.182;24.308;2023-04-03T08:53:15;5.00;;;3.00;;
27839;SDS011;15207;42.182;24.308;2023-04-03T08:55:53;6.57;;;3.40;;
27839;SDS011;15207;42.182;24.308;2023-04-03T08:58:21;5.20;;;3.10;;
27839;SDS011;15207;42.182;24.308;2023-04-03T09:03:30;4.63;;;1.97;;
27839;SDS011;15207;42.182;24.308;2023-04-03T09:06:10;3.20;;;2.15;;
27839;SDS011;15207;42.182;24.308;2023-04-03T09:08:45;3.25;;;2.00;;
27839;SDS011;15207;42.182;24.308;2023-04-03T09:11:24;4.30;;;2.70;;
27839;SDS011;15207;42.182;24.308;2023-04-03T09:22:23;4.10;;;2.58;;
27839;SDS011;15207;42.182;24.308;2023-04-03T09:24:57;4.10;;;2.80;;
27839;SDS011;15207;42.182;24.308;2023-04-03T09:29:55;10.57;;;3.20;;
27839;SDS011;15207;42.182;24.308;2023-04-03T09:32:32;8.05;;;3.15;;
27839;SDS011;15207;42.182;24.308;2023-04-03T09:35:04;6.95;;;3.35;;
27839;SDS011;15207;42.182;24.308;2023-04-03T09:37:41;5.20;;;3.00;;
27839;SDS011;15207;42.182;24.308;2023-04-03T09:42:51;6.50;;;3.30;;
27839;SDS011;15207;42.182;24.308;2023-04-03T09:50:31;3.55;;;2.85;;
27839;SDS011;15207;42.182;24.308;2023-04-03T09:52:57;4.72;;;2.80;;
27839;SDS011;15207;42.182;24.308;2023-04-03T09:55:23;4.90;;;2.80;;
27839;SDS011;15207;42.182;24.308;2023-04-03T09:58:01;5.55;;;2.80;;
27839;SDS011;15207;42.182;24.308;2023-04-03T10:00:39;6.20;;;2.40;;
27839;SDS011;15207;42.182;24.308;2023-04-03T10:03:05;3.67;;;2.58;;
27839;SDS011;15207;42.182;24.308;2023-04-03T10:05:59;3.20;;;2.30;;
27839;SDS011;15207;42.182;24.308;2023-04-03T10:08:27;5.78;;;2.92;;
27839;SDS011;15207;42.182;24.308;2023-04-03T10:13:32;3.05;;;1.80;;
27839;SDS011;15207;42.182;24.308;2023-04-03T10:16:13;3.95;;;2.05;;
27839;SDS011;15207;42.182;24.308;2023-04-03T10:24:21;3.00;;;2.33;;
27839;SDS011;15207;42.182;24.308;2023-04-03T10:26:53;3.80;;;2.80;;
27839;SDS011;15207;42.182;24.308;2023-04-03T10:29:40;4.30;;;2.60;;
27839;SDS011;15207;42.182;24.308;2023-04-03T10:34:41;5.32;;;2.75;;
27839;SDS011;15207;42.182;24.308;2023-04-03T10:42:39;4.00;;;2.30;;
27839;SDS011;15207;42.182;24.308;2023-04-03T11:01:37;2.45;;;2.05;;
27839;SDS011;15207;42.182;24.308;2023-04-03T11:04:06;3.70;;;2.00;;
27839;SDS011;15207;42.182;24.308;2023-04-03T11:07:16;2.50;;;2.00;;
27839;SDS011;15207;42.182;24.308;2023-04-03T11:09:44;3.92;;;1.80;;
27839;SDS011;15207;42.182;24.308;2023-04-03T11:15:01;4.05;;;2.00;;
27839;SDS011;15207;42.182;24.308;2023-04-03T11:17:41;3.85;;;2.00;;
27839;SDS011;15207;42.182;24.308;2023-04-03T11:20:20;2.50;;;1.95;;
27839;SDS011;15207;42.182;24.308;2023-04-03T11:26:05;5.80;;;2.40;;
27839;SDS011;15207;42.182;24.308;2023-04-03T11:28:34;3.40;;;2.33;;
27839;SDS011;15207;42.182;24.308;2023-04-03T11:31:05;5.55;;;2.80;;
27839;SDS011;15207;42.182;24.308;2023-04-03T11:39:20;4.80;;;2.60;;
27839;SDS011;15207;42.182;24.308;2023-04-03T11:41:49;7.65;;;2.80;;
27839;SDS011;15207;42.182;24.308;2023-04-03T11:46:56;3.70;;;2.65;;
27839;SDS011;15207;42.182;24.308;2023-04-03T12:18:58;8.05;;;4.80;;
27839;SDS011;15207;42.182;24.308;2023-04-03T12:24:28;11.02;;;5.50;;
27839;SDS011;15207;42.182;24.308;2023-04-03T12:29:27;11.27;;;6.43;;
27839;SDS011;15207;42.182;24.308;2023-04-03T12:38:17;6.80;;;4.55;;
27839;SDS011;15207;42.182;24.308;2023-04-03T12:40:57;11.60;;;5.55;;
27839;SDS011;15207;42.182;24.308;2023-04-03T12:43:53;7.35;;;5.50;;
27839;SDS011;15207;42.182;24.308;2023-04-03T12:46:36;11.77;;;6.28;;
27839;SDS011;15207;42.182;24.308;2023-04-03T12:51:43;9.40;;;5.50;;
27839;SDS011;15207;42.182;24.308;2023-04-03T12:56:49;9.25;;;5.80;;
27839;SDS011;15207;42.182;24.308;2023-04-03T12:59:18;10.70;;;7.07;;
27839;SDS011;15207;42.182;24.308;2023-04-03T13:01:53;9.97;;;5.50;;
27839;SDS011;15207;42.182;24.308;2023-04-03T13:04:23;8.70;;;4.63;;
27839;SDS011;15207;42.182;24.308;2023-04-03T13:06:50;5.80;;;4.20;;
27839;SDS011;15207;42.182;24.308;2023-04-03T13:12:14;6.53;;;4.15;;
27839;SDS011;15207;42.182;24.308;2023-04-03T13:14:50;7.47;;;4.47;;
27839;SDS011;15207;42.182;24.308;2023-04-03T13:17:38;7.85;;;4.13;;
27839;SDS011;15207;42.182;24.308;2023-04-03T13:20:19;6.90;;;4.60;;
27839;SDS011;15207;42.182;24.308;2023-04-03T13:22:55;9.48;;;5.72;;
27839;SDS011;15207;42.182;24.308;2023-04-03T13:25:26;10.18;;;5.35;;
27839;SDS011;15207;42.182;24.308;2023-04-03T13:27:54;9.35;;;5.82;;
27839;SDS011;15207;42.182;24.308;2023-04-03T13:30:24;10.45;;;5.68;;
27839;SDS011;15207;42.182;24.308;2023-04-03T13:32:53;8.70;;;5.90;;
27839;SDS011;15207;42.182;24.308;2023-04-03T13:35:40;6.95;;;4.95;;
27839;SDS011;15207;42.182;24.308;2023-04-03T13:38:19;9.30;;;5.35;;
27839;SDS011;15207;42.182;24.308;2023-04-03T13:40:48;7.50;;;4.50;;
27839;SDS011;15207;42.182;24.308;2023-04-03T13:43:22;9.55;;;5.25;;
27839;SDS011;15207;42.182;24.308;2023-04-03T13:45:58;6.03;;;4.60;;
27839;SDS011;15207;42.182;24.308;2023-04-03T13:48:47;7.60;;;4.50;;
27839;SDS011;15207;42.182;24.308;2023-04-03T13:53:43;5.40;;;4.00;;
27839;SDS011;15207;42.182;24.308;2023-04-03T13:58:57;7.85;;;3.80;;
27839;SDS011;15207;42.182;24.308;2023-04-03T14:01:32;9.73;;;3.72;;
27839;SDS011;15207;42.182;24.308;2023-04-03T14:04:10;5.80;;;3.80;;
27839;SDS011;15207;42.182;24.308;2023-04-03T14:06:38;4.50;;;3.80;;
27839;SDS011;15207;42.182;24.308;2023-04-03T14:09:04;5.75;;;4.05;;
27839;SDS011;15207;42.182;24.308;2023-04-03T14:11:30;10.00;;;5.20;;
27839;SDS011;15207;42.182;24.308;2023-04-03T14:14:00;6.60;;;4.63;;
27839;SDS011;15207;42.182;24.308;2023-04-03T14:16:30;6.97;;;4.23;;
27839;SDS011;15207;42.182;24.308;2023-04-03T14:19:02;5.50;;;4.15;;
27839;SDS011;15207;42.182;24.308;2023-04-03T14:21:28;6.25;;;3.70;;
27839;SDS011;15207;42.182;24.308;2023-04-03T14:23:53;4.97;;;3.25;;
27839;SDS011;15207;42.182;24.308;2023-04-03T14:26:21;7.10;;;4.35;;
27839;SDS011;15207;42.182;24.308;2023-04-03T14:28:50;7.17;;;4.50;;
27839;SDS011;15207;42.182;24.308;2023-04-03T14:31:17;10.80;;;5.50;;
27839;SDS011;15207;42.182;24.308;2023-04-03T14:33:44;7.55;;;5.60;;
27839;SDS011;15207;42.182;24.308;2023-04-03T14:36:25;6.50;;;4.30;;
27839;SDS011;15207;42.182;24.308;2023-04-03T14:38:53;9.80;;;5.72;;
27839;SDS011;15207;42.182;24.308;2023-04-03T14:41:21;7.20;;;5.00;;
27839;SDS011;15207;42.182;24.308;2023-04-03T14:43:48;7.80;;;4.40;;
27839;SDS011;15207;42.182;24.308;2023-04-03T14:46:26;4.95;;;3.15;;
27839;SDS011;15207;42.182;24.308;2023-04-03T14:48:55;5.53;;;4.00;;
27839;SDS011;15207;42.182;24.308;2023-04-03T14:51:21;6.30;;;4.00;;
27839;SDS011;15207;42.182;24.308;2023-04-03T14:53:46;7.07;;;3.70;;
27839;SDS011;15207;42.182;24.308;2023-04-03T14:56:16;5.23;;;3.77;;
27839;SDS011;15207;42.182;24.308;2023-04-03T15:02:23;7.80;;;3.70;;
27839;SDS011;15207;42.182;24.308;2023-04-03T15:04:57;6.45;;;3.60;;
27839;SDS011;15207;42.182;24.308;2023-04-03T15:07:24;7.95;;;3.40;;
27839;SDS011;15207;42.182;24.308;2023-04-03T15:09:52;5.20;;;4.00;;
27839;SDS011;15207;42.182;24.308;2023-04-03T15:12:18;6.10;;;4.50;;
27839;SDS011;15207;42.182;24.308;2023-04-03T15:14:43;7.30;;;4.20;;
27839;SDS011;15207;42.182;24.308;2023-04-03T15:17:14;5.90;;;4.20;;
27839;SDS011;15207;42.182;24.308;2023-04-03T15:19:46;7.10;;;4.20;;
27839;SDS011;15207;42.182;24.308;2023-04-03T15:24:39;10.20;;;6.70;;
27839;SDS011;15207;42.182;24.308;2023-04-03T15:27:05;12.65;;;7.00;;
27839;SDS011;15207;42.182;24.308;2023-04-03T15:29:31;14.20;;;7.33;;
27839;SDS011;15207;42.182;24.308;2023-04-03T15:31:56;11.75;;;7.30;;
27839;SDS011;15207;42.182;24.308;2023-04-03T15:34:22;13.35;;;7.85;;
27839;SDS011;15207;42.182;24.308;2023-04-03T15:36:48;14.65;;;8.25;;
27839;SDS011;15207;42.182;24.308;2023-04-03T15:39:13;16.47;;;9.13;;
27839;SDS011;15207;42.182;24.308;2023-04-03T15:41:41;15.20;;;9.00;;
27839;SDS011;15207;42.182;24.308;2023-04-03T15:44:07;13.40;;;8.55;;
27839;SDS011;15207;42.182;24.308;2023-04-03T15:46:33;13.10;;;8.10;;
27839;SDS011;15207;42.182;24.308;2023-04-03T15:51:24;15.50;;;9.90;;
27839;SDS011;15207;42.182;24.308;2023-04-03T15:53:50;12.90;;;9.60;;
27839;SDS011;15207;42.182;24.308;2023-04-03T15:56:15;18.10;;;10.50;;
27839;SDS011;15207;42.182;24.308;2023-04-03T15:58:41;14.35;;;9.90;;
27839;SDS011;15207;42.182;24.308;2023-04-03T16:01:08;16.03;;;9.93;;
27839;SDS011;15207;42.182;24.308;2023-04-03T16:03:36;13.30;;;9.80;;
27839;SDS011;15207;42.182;24.308;2023-04-03T16:06:03;15.65;;;9.65;;
27839;SDS011;15207;42.182;24.308;2023-04-03T16:08:29;17.45;;;10.55;;
27839;SDS011;15207;42.182;24.308;2023-04-03T16:10:55;15.10;;;10.50;;
27839;SDS011;15207;42.182;24.308;2023-04-03T16:13:20;13.15;;;8.70;;
27839;SDS011;15207;42.182;24.308;2023-04-03T16:15:46;14.05;;;9.10;;
27839;SDS011;15207;42.182;24.308;2023-04-03T16:18:13;12.52;;;8.98;;
27839;SDS011;15207;42.182;24.308;2023-04-03T16:20:39;13.30;;;9.10;;
27839;SDS011;15207;42.182;24.308;2023-04-03T16:23:05;21.05;;;12.25;;
27839;SDS011;15207;42.182;24.308;2023-04-03T16:25:31;17.80;;;10.80;;
27839;SDS011;15207;42.182;24.308;2023-04-03T16:27:56;16.30;;;10.60;;
27839;SDS011;15207;42.182;24.308;2023-04-03T16:30:22;15.15;;;10.20;;
27839;SDS011;15207;42.182;24.308;2023-04-03T16:32:48;17.50;;;11.80;;
27839;SDS011;15207;42.182;24.308;2023-04-03T16:35:14;15.55;;;11.15;;
27839;SDS011;15207;42.182;24.308;2023-04-03T16:37:40;20.10;;;12.20;;
27839;SDS011;15207;42.182;24.308;2023-04-03T16:40:06;18.00;;;10.90;;
27839;SDS011;15207;42.182;24.308;2023-04-03T16:42:32;21.20;;;12.50;;
27839;SDS011;15207;42.182;24.308;2023-04-03T16:44:58;22.00;;;13.80;;
27839;SDS011;15207;42.182;24.308;2023-04-03T16:47:26;28.80;;;15.60;;
27839;SDS011;15207;42.182;24.308;2023-04-03T16:49:51;30.40;;;16.90;;
27839;SDS011;15207;42.182;24.308;2023-04-03T16:52:17;35.40;;;19.50;;
27839;SDS011;15207;42.182;24.308;2023-04-03T16:54:43;35.00;;;17.70;;
27839;SDS011;15207;42.182;24.308;2023-04-03T16:57:08;33.85;;;17.00;;
27839;SDS011;15207;42.182;24.308;2023-04-03T17:01:59;25.45;;;13.55;;
27839;SDS011;15207;42.182;24.308;2023-04-03T17:04:25;19.65;;;11.90;;
27839;SDS011;15207;42.182;24.308;2023-04-03T17:09:16;17.77;;;11.40;;
27839;SDS011;15207;42.182;24.308;2023-04-03T17:11:42;14.55;;;10.10;;
27839;SDS011;15207;42.182;24.308;2023-04-03T17:14:08;18.70;;;10.80;;
27839;SDS011;15207;42.182;24.308;2023-04-03T17:16:34;24.07;;;12.53;;
27839;SDS011;15207;42.182;24.308;2023-04-03T17:19:02;26.15;;;14.50;;
27839;SDS011;15207;42.182;24.308;2023-04-03T17:21:28;24.70;;;14.85;;
27839;SDS011;15207;42.182;24.308;2023-04-03T17:23:55;22.30;;;15.10;;
27839;SDS011;15207;42.182;24.308;2023-04-03T17:26:25;25.20;;;15.70;;